sensor_id;sensor_type;location;lat;lon;timestamp;P1;durP1;ratioP1;P2;durP2;ratioP2
56519;SDS011;42420;53.586;10.052;2023-02-15T00:02:23;57.90;;;27.02;;
56519;SDS011;42420;53.586;10.052;2023-02-15T00:07:20;55.67;;;27.58;;
56519;SDS011;42420;53.586;10.052;2023-02-15T00:12:16;50.70;;;27.85;;
56519;SDS011;42420;53.586;10.052;2023-02-15T00:17:13;58.17;;;28.27;;
56519;SDS011;42420;53.586;10.052;2023-02-15T00:22:09;66.30;;;28.13;;
56519;SDS011;42420;53.586;10.052;2023-02-15T00:27:06;54.35;;;27.63;;
56519;SDS011;42420;53.586;10.052;2023-02-15T00:32:03;51.50;;;26.58;;
56519;SDS011;42420;53.586;10.052;2023-02-15T00:36:59;50.88;;;25.70;;
56519;SDS011;42420;53.586;10.052;2023-02-15T00:41:58;54.72;;;26.75;;
56519;SDS011;42420;53.586;10.052;2023-02-15T00:46:58;65.85;;;27.63;;
56519;SDS011;42420;53.586;10.052;2023-02-15T00:51:54;57.33;;;28.70;;
56519;SDS011;42420;53.586;10.052;2023-02-15T00:56:51;56.03;;;28.02;;
56519;SDS011;42420;53.586;10.052;2023-02-15T01:01:48;57.08;;;27.23;;
56519;SDS011;42420;53.586;10.052;2023-02-15T01:06:45;48.70;;;25.85;;
56519;SDS011;42420;53.586;10.052;2023-02-15T01:11:41;57.97;;;27.35;;
56519;SDS011;42420;53.586;10.052;2023-02-15T01:16:38;49.80;;;26.23;;
56519;SDS011;42420;53.586;10.052;2023-02-15T01:21:34;57.45;;;28.42;;
56519;SDS011;42420;53.586;10.052;2023-02-15T01:26:31;60.05;;;28.17;;
56519;SDS011;42420;53.586;10.052;2023-02-15T01:31:27;63.30;;;27.00;;
56519;SDS011;42420;53.586;10.052;2023-02-15T01:36:24;54.38;;;27.98;;
56519;SDS011;42420;53.586;10.052;2023-02-15T01:41:21;68.15;;;28.27;;
56519;SDS011;42420;53.586;10.052;2023-02-15T01:46:21;52.67;;;28.48;;
56519;SDS011;42420;53.586;10.052;2023-02-15T01:51:20;54.22;;;26.45;;
56519;SDS011;42420;53.586;10.052;2023-02-15T01:56:21;54.70;;;26.58;;
56519;SDS011;42420;53.586;10.052;2023-02-15T02:01:21;51.42;;;26.70;;
56519;SDS011;42420;53.586;10.052;2023-02-15T02:11:15;49.22;;;24.83;;
56519;SDS011;42420;53.586;10.052;2023-02-15T02:16:22;53.80;;;27.00;;
56519;SDS011;42420;53.586;10.052;2023-02-15T02:36:58;61.40;;;25.15;;
56519;SDS011;42420;53.586;10.052;2023-02-15T02:42:07;61.90;;;26.52;;
56519;SDS011;42420;53.586;10.052;2023-02-15T02:47:13;57.47;;;27.17;;
56519;SDS011;42420;53.586;10.052;2023-02-15T02:57:43;55.53;;;27.13;;
56519;SDS011;42420;53.586;10.052;2023-02-15T03:02:44;60.67;;;25.10;;
56519;SDS011;42420;53.586;10.052;2023-02-15T03:07:46;47.80;;;24.52;;
56519;SDS011;42420;53.586;10.052;2023-02-15T03:12:44;49.70;;;25.27;;
56519;SDS011;42420;53.586;10.052;2023-02-15T03:17:42;48.85;;;23.92;;
56519;SDS011;42420;53.586;10.052;2023-02-15T03:22:42;49.28;;;25.48;;
56519;SDS011;42420;53.586;10.052;2023-02-15T03:27:43;58.10;;;25.42;;
56519;SDS011;42420;53.586;10.052;2023-02-15T03:32:42;54.28;;;25.05;;
56519;SDS011;42420;53.586;10.052;2023-02-15T03:37:50;52.65;;;24.55;;
56519;SDS011;42420;53.586;10.052;2023-02-15T03:42:51;50.92;;;27.20;;
56519;SDS011;42420;53.586;10.052;2023-02-15T03:47:54;52.83;;;26.75;;
56519;SDS011;42420;53.586;10.052;2023-02-15T03:52:52;54.50;;;30.25;;
56519;SDS011;42420;53.586;10.052;2023-02-15T03:57:50;53.55;;;25.73;;
56519;SDS011;42420;53.586;10.052;2023-02-15T04:03:09;49.42;;;24.60;;
56519;SDS011;42420;53.586;10.052;2023-02-15T04:08:09;52.40;;;24.33;;
56519;SDS011;42420;53.586;10.052;2023-02-15T04:13:06;48.22;;;25.65;;
56519;SDS011;42420;53.586;10.052;2023-02-15T04:18:03;49.30;;;24.33;;
56519;SDS011;42420;53.586;10.052;2023-02-15T04:23:00;44.88;;;24.17;;
56519;SDS011;42420;53.586;10.052;2023-02-15T04:28:15;47.45;;;24.65;;
56519;SDS011;42420;53.586;10.052;2023-02-15T04:33:12;42.03;;;24.08;;
56519;SDS011;42420;53.586;10.052;2023-02-15T04:38:16;42.88;;;23.13;;
56519;SDS011;42420;53.586;10.052;2023-02-15T04:43:14;47.22;;;23.02;;
56519;SDS011;42420;53.586;10.052;2023-02-15T04:48:20;49.03;;;23.30;;
56519;SDS011;42420;53.586;10.052;2023-02-15T04:59:45;42.17;;;22.45;;
56519;SDS011;42420;53.586;10.052;2023-02-15T05:04:51;39.17;;;21.90;;
56519;SDS011;42420;53.586;10.052;2023-02-15T05:10:01;50.58;;;21.23;;
56519;SDS011;42420;53.586;10.052;2023-02-15T05:15:05;50.63;;;23.23;;
56519;SDS011;42420;53.586;10.052;2023-02-15T05:20:04;43.97;;;23.10;;
56519;SDS011;42420;53.586;10.052;2023-02-15T05:26:11;36.95;;;21.75;;
56519;SDS011;42420;53.586;10.052;2023-02-15T05:32:12;45.85;;;24.25;;
56519;SDS011;42420;53.586;10.052;2023-02-15T05:38:40;49.30;;;22.58;;
56519;SDS011;42420;53.586;10.052;2023-02-15T05:49:43;44.28;;;21.17;;
56519;SDS011;42420;53.586;10.052;2023-02-15T05:55:59;47.72;;;21.65;;
56519;SDS011;42420;53.586;10.052;2023-02-15T06:01:27;41.35;;;20.77;;
56519;SDS011;42420;53.586;10.052;2023-02-15T06:06:25;41.72;;;20.13;;
56519;SDS011;42420;53.586;10.052;2023-02-15T06:12:04;43.08;;;19.52;;
56519;SDS011;42420;53.586;10.052;2023-02-15T06:24:22;36.38;;;19.95;;
56519;SDS011;42420;53.586;10.052;2023-02-15T06:37:13;42.10;;;20.10;;
56519;SDS011;42420;53.586;10.052;2023-02-15T06:42:31;42.03;;;20.95;;
56519;SDS011;42420;53.586;10.052;2023-02-15T06:48:34;40.17;;;19.20;;
56519;SDS011;42420;53.586;10.052;2023-02-15T06:54:44;41.63;;;21.77;;
56519;SDS011;42420;53.586;10.052;2023-02-15T07:00:29;40.05;;;21.52;;
56519;SDS011;42420;53.586;10.052;2023-02-15T07:12:27;37.70;;;21.40;;
56519;SDS011;42420;53.586;10.052;2023-02-15T07:17:40;38.58;;;21.48;;
56519;SDS011;42420;53.586;10.052;2023-02-15T07:29:36;39.75;;;21.52;;
56519;SDS011;42420;53.586;10.052;2023-02-15T07:35:25;40.10;;;21.33;;
56519;SDS011;42420;53.586;10.052;2023-02-15T07:42:07;40.30;;;21.75;;
56519;SDS011;42420;53.586;10.052;2023-02-15T07:48:39;41.90;;;21.52;;
56519;SDS011;42420;53.586;10.052;2023-02-15T07:54:25;41.35;;;20.65;;
56519;SDS011;42420;53.586;10.052;2023-02-15T07:59:25;37.15;;;20.20;;
56519;SDS011;42420;53.586;10.052;2023-02-15T08:05:15;40.67;;;20.98;;
56519;SDS011;42420;53.586;10.052;2023-02-15T08:10:46;35.83;;;19.38;;
56519;SDS011;42420;53.586;10.052;2023-02-15T08:17:03;37.42;;;19.85;;
56519;SDS011;42420;53.586;10.052;2023-02-15T08:22:15;39.25;;;20.42;;
56519;SDS011;42420;53.586;10.052;2023-02-15T08:27:13;38.80;;;20.42;;
56519;SDS011;42420;53.586;10.052;2023-02-15T08:32:12;39.45;;;20.80;;
56519;SDS011;42420;53.586;10.052;2023-02-15T08:37:15;35.25;;;19.90;;
56519;SDS011;42420;53.586;10.052;2023-02-15T08:42:32;46.92;;;20.02;;
56519;SDS011;42420;53.586;10.052;2023-02-15T08:48:30;37.85;;;19.90;;
56519;SDS011;42420;53.586;10.052;2023-02-15T09:06:35;32.75;;;19.60;;
56519;SDS011;42420;53.586;10.052;2023-02-15T09:12:25;40.13;;;20.25;;
56519;SDS011;42420;53.586;10.052;2023-02-15T09:17:59;39.10;;;19.10;;
56519;SDS011;42420;53.586;10.052;2023-02-15T09:29:04;39.60;;;20.15;;
56519;SDS011;42420;53.586;10.052;2023-02-15T09:34:26;41.63;;;21.63;;
56519;SDS011;42420;53.586;10.052;2023-02-15T09:39:28;37.85;;;20.90;;
56519;SDS011;42420;53.586;10.052;2023-02-15T09:45:31;38.55;;;21.10;;
56519;SDS011;42420;53.586;10.052;2023-02-15T09:57:06;37.50;;;20.03;;
56519;SDS011;42420;53.586;10.052;2023-02-15T10:09:33;39.58;;;23.02;;
56519;SDS011;42420;53.586;10.052;2023-02-15T10:15:39;35.45;;;21.35;;
56519;SDS011;42420;53.586;10.052;2023-02-15T10:28:41;36.63;;;21.48;;
56519;SDS011;42420;53.586;10.052;2023-02-15T10:53:54;39.80;;;23.33;;
56519;SDS011;42420;53.586;10.052;2023-02-15T11:13:07;38.00;;;22.42;;
56519;SDS011;42420;53.586;10.052;2023-02-15T11:18:39;39.75;;;23.70;;
56519;SDS011;42420;53.586;10.052;2023-02-15T11:43:33;40.47;;;24.33;;
56519;SDS011;42420;53.586;10.052;2023-02-15T11:55:12;41.13;;;24.90;;
56519;SDS011;42420;53.586;10.052;2023-02-15T12:01:29;44.38;;;25.90;;
56519;SDS011;42420;53.586;10.052;2023-02-15T12:07:28;44.00;;;25.90;;
56519;SDS011;42420;53.586;10.052;2023-02-15T12:12:29;42.65;;;25.48;;
56519;SDS011;42420;53.586;10.052;2023-02-15T12:17:35;42.83;;;24.23;;
56519;SDS011;42420;53.586;10.052;2023-02-15T12:28:59;38.75;;;23.98;;
56519;SDS011;42420;53.586;10.052;2023-02-15T12:46:19;37.70;;;24.05;;
56519;SDS011;42420;53.586;10.052;2023-02-15T13:00:06;42.65;;;27.30;;
56519;SDS011;42420;53.586;10.052;2023-02-15T13:18:00;43.17;;;24.70;;
56519;SDS011;42420;53.586;10.052;2023-02-15T13:23:36;40.33;;;25.85;;
56519;SDS011;42420;53.586;10.052;2023-02-15T14:30:02;28.70;;;18.10;;
56519;SDS011;42420;53.586;10.052;2023-02-15T14:35:24;29.58;;;19.17;;
56519;SDS011;42420;53.586;10.052;2023-02-15T15:12:37;34.25;;;19.52;;
56519;SDS011;42420;53.586;10.052;2023-02-15T16:04:10;29.08;;;19.13;;
56519;SDS011;42420;53.586;10.052;2023-02-15T16:10:02;27.38;;;18.70;;
56519;SDS011;42420;53.586;10.052;2023-02-15T16:21:54;31.95;;;20.25;;
56519;SDS011;42420;53.586;10.052;2023-02-15T16:27:48;28.23;;;18.80;;
56519;SDS011;42420;53.586;10.052;2023-02-15T16:39:59;27.37;;;18.20;;
56519;SDS011;42420;53.586;10.052;2023-02-15T16:58:44;27.15;;;17.65;;
56519;SDS011;42420;53.586;10.052;2023-02-15T17:11:16;26.08;;;18.27;;
56519;SDS011;42420;53.586;10.052;2023-02-15T17:17:30;27.80;;;17.40;;
56519;SDS011;42420;53.586;10.052;2023-02-15T17:22:30;27.00;;;17.83;;
56519;SDS011;42420;53.586;10.052;2023-02-15T17:27:40;28.90;;;18.25;;
56519;SDS011;42420;53.586;10.052;2023-02-15T17:39:29;27.95;;;19.27;;
56519;SDS011;42420;53.586;10.052;2023-02-15T17:50:36;31.73;;;20.45;;
56519;SDS011;42420;53.586;10.052;2023-02-15T17:55:46;34.63;;;20.27;;
56519;SDS011;42420;53.586;10.052;2023-02-15T18:01:38;35.33;;;21.23;;
56519;SDS011;42420;53.586;10.052;2023-02-15T18:13:45;28.30;;;18.75;;
56519;SDS011;42420;53.586;10.052;2023-02-15T18:20:16;31.38;;;19.63;;
56519;SDS011;42420;53.586;10.052;2023-02-15T18:37:18;29.85;;;19.85;;
56519;SDS011;42420;53.586;10.052;2023-02-15T18:42:49;33.55;;;20.13;;
56519;SDS011;42420;53.586;10.052;2023-02-15T19:14:31;25.90;;;17.92;;
56519;SDS011;42420;53.586;10.052;2023-02-15T19:26:05;29.95;;;18.55;;
56519;SDS011;42420;53.586;10.052;2023-02-15T19:32:14;28.30;;;18.50;;
56519;SDS011;42420;53.586;10.052;2023-02-15T19:39:07;29.20;;;19.02;;
56519;SDS011;42420;53.586;10.052;2023-02-15T19:45:32;28.17;;;18.45;;
56519;SDS011;42420;53.586;10.052;2023-02-15T19:51:51;30.73;;;20.42;;
56519;SDS011;42420;53.586;10.052;2023-02-15T20:17:13;26.73;;;17.85;;
56519;SDS011;42420;53.586;10.052;2023-02-15T20:49:12;26.38;;;17.20;;
56519;SDS011;42420;53.586;10.052;2023-02-15T20:54:19;27.20;;;17.05;;
56519;SDS011;42420;53.586;10.052;2023-02-15T20:59:32;26.42;;;16.73;;
56519;SDS011;42420;53.586;10.052;2023-02-15T21:05:51;24.60;;;16.13;;
56519;SDS011;42420;53.586;10.052;2023-02-15T21:12:17;24.52;;;15.98;;
56519;SDS011;42420;53.586;10.052;2023-02-15T21:17:20;24.27;;;15.88;;
56519;SDS011;42420;53.586;10.052;2023-02-15T21:22:46;24.75;;;15.25;;
56519;SDS011;42420;53.586;10.052;2023-02-15T21:35:46;27.70;;;16.70;;
56519;SDS011;42420;53.586;10.052;2023-02-15T21:54:21;23.40;;;15.60;;
56519;SDS011;42420;53.586;10.052;2023-02-15T21:59:55;26.20;;;16.15;;
56519;SDS011;42420;53.586;10.052;2023-02-15T22:05:48;24.80;;;16.80;;
56519;SDS011;42420;53.586;10.052;2023-02-15T22:11:54;25.00;;;16.23;;
56519;SDS011;42420;53.586;10.052;2023-02-15T22:18:29;24.08;;;15.35;;
56519;SDS011;42420;53.586;10.052;2023-02-15T22:24:19;26.63;;;15.70;;
56519;SDS011;42420;53.586;10.052;2023-02-15T22:30:44;27.52;;;14.85;;
56519;SDS011;42420;53.586;10.052;2023-02-15T22:56:23;23.13;;;14.75;;
56519;SDS011;42420;53.586;10.052;2023-02-15T23:09:05;24.58;;;13.88;;
